Time;durP1;ratioP1;P1;durP2;ratioP2;P2;SDS_P1;SDS_P2;PMS_P1;PMS_P2;Temp;Humidity;BMP_temperature;BMP_pressure;BME280_temperature;BME280_humidity;BME280_pressure;Samples;Min_cycle;Max_cycle;Signal;HPM_P1;HPM_P2
2023/12/26 00:01:13;;;;;;;6.57;3.97;;;8.00;99.90;;;;;;4412652;28;656815;-78
2023/12/26 00:04:00;;;;;;;8.57;4.00;;;8.00;99.90;;;;;;4427524;28;656492;-78
2023/12/26 00:06:48;;;;;;;9.80;4.30;;;8.00;99.90;;;;;;4415256;28;656580;-78
2023/12/26 00:09:38;;;;;;;7.13;4.63;;;8.00;99.90;;;;;;4443254;28;657152;-79
2023/12/26 00:12:25;;;;;;;5.07;3.57;;;8.00;99.90;;;;;;4413822;28;657861;-78
2023/12/26 00:15:14;;;;;;;6.03;3.70;;;8.10;99.90;;;;;;4413598;28;657093;-78
2023/12/26 00:18:01;;;;;;;5.70;3.40;;;8.10;99.90;;;;;;4425377;28;656863;-79
2023/12/26 00:20:48;;;;;;;4.37;2.30;;;8.10;99.90;;;;;;4405079;28;656490;-79
2023/12/26 00:23:37;;;;;;;4.60;2.77;;;8.10;99.90;;;;;;4432482;28;657516;-78
2023/12/26 00:26:24;;;;;;;3.90;2.53;;;8.10;99.90;;;;;;4406083;28;657255;-78
2023/12/26 00:29:11;;;;;;;5.27;2.77;;;8.10;99.90;;;;;;4435305;28;656589;-79
2023/12/26 00:32:00;;;;;;;3.90;2.03;;;8.20;99.90;;;;;;4412722;28;656459;-79
2023/12/26 00:34:47;;;;;;;8.23;2.37;;;8.20;99.90;;;;;;4443205;28;655995;-79
2023/12/26 00:37:34;;;;;;;4.37;2.17;;;8.20;99.90;;;;;;4410934;28;656906;-78
2023/12/26 00:40:21;;;;;;;2.17;1.33;;;8.20;99.90;;;;;;4429110;28;656377;-79
2023/12/26 00:43:08;;;;;;;4.17;2.20;;;8.20;99.90;;;;;;4410754;28;657110;-79
2023/12/26 00:45:55;;;;;;;3.80;2.13;;;8.10;99.90;;;;;;4433202;28;658644;-79
2023/12/26 00:48:44;;;;;;;1.93;1.13;;;8.20;99.90;;;;;;4408987;28;656854;-79
2023/12/26 00:51:31;;;;;;;4.30;2.00;;;8.20;99.90;;;;;;4426347;28;656679;-79
2023/12/26 00:54:19;;;;;;;3.63;2.40;;;8.20;99.90;;;;;;4396784;28;656578;-79
2023/12/26 00:57:06;;;;;;;2.87;1.90;;;8.20;99.90;;;;;;4426571;28;656651;-79
2023/12/26 00:59:53;;;;;;;3.00;1.80;;;8.30;99.90;;;;;;4397348;28;656588;-78
2023/12/26 01:02:40;;;;;;;1.53;1.00;;;8.30;99.90;;;;;;4423979;28;657306;-79
2023/12/26 01:05:29;;;;;;;2.47;1.37;;;8.30;99.90;;;;;;4416996;28;657657;-79
2023/12/26 01:08:16;;;;;;;3.10;1.93;;;8.40;99.90;;;;;;4429684;28;656859;-79
2023/12/26 01:11:03;;;;;;;3.23;1.80;;;8.40;99.90;;;;;;4397764;28;656322;-79
2023/12/26 01:13:51;;;;;;;3.80;1.80;;;8.40;99.90;;;;;;4421132;28;656589;-79
2023/12/26 01:16:39;;;;;;;3.70;1.80;;;8.40;99.90;;;;;;4405397;28;656534;-78
2023/12/26 01:19:26;;;;;;;3.73;1.57;;;8.40;99.90;;;;;;4432329;28;656524;-79
2023/12/26 01:22:15;;;;;;;3.07;1.80;;;8.40;99.90;;;;;;4407840;28;656697;-79
2023/12/26 01:25:05;;;;;;;2.63;1.58;;;8.40;99.90;;;;;;4412126;28;657073;-79
2023/12/26 01:27:52;;;;;;;2.87;1.60;;;8.50;99.90;;;;;;4433129;28;656831;-79
2023/12/26 01:30:40;;;;;;;1.60;0.93;;;8.50;99.90;;;;;;4438312;28;657738;-79
2023/12/26 01:33:28;;;;;;;3.13;1.40;;;8.40;99.90;;;;;;4410968;28;657035;-79
2023/12/26 01:36:15;;;;;;;3.72;1.77;;;8.50;99.90;;;;;;4430865;28;656228;-79
2023/12/26 01:39:05;;;;;;;2.30;1.30;;;8.50;99.90;;;;;;4402679;28;657250;-79
2023/12/26 01:41:52;;;;;;;3.57;1.60;;;8.50;99.90;;;;;;4427226;28;656383;-79
2023/12/26 01:44:40;;;;;;;1.57;1.07;;;8.50;99.90;;;;;;4424425;28;656880;-79
2023/12/26 01:47:27;;;;;;;1.93;0.93;;;8.50;99.90;;;;;;4436725;28;656576;-79
2023/12/26 01:50:14;;;;;;;3.73;1.60;;;8.50;99.90;;;;;;4412215;28;657683;-80
2023/12/26 01:53:01;;;;;;;2.90;1.20;;;8.50;99.90;;;;;;4429529;28;656406;-79
2023/12/26 01:55:50;;;;;;;3.88;1.35;;;8.60;99.90;;;;;;4410251;28;656749;-79
2023/12/26 01:58:37;;;;;;;2.27;1.20;;;8.50;99.90;;;;;;4420608;28;656887;-79
2023/12/26 02:01:25;;;;;;;2.17;1.30;;;8.60;99.90;;;;;;4420856;28;657426;-79
2023/12/26 02:04:12;;;;;;;3.97;1.30;;;8.60;99.90;;;;;;4434331;28;657129;-80
2023/12/26 02:06:59;;;;;;;3.13;1.10;;;8.50;99.90;;;;;;4413206;28;658122;-79
2023/12/26 02:09:46;;;;;;;1.63;0.90;;;8.50;99.90;;;;;;4422273;28;656334;-79
2023/12/26 02:12:35;;;;;;;3.10;1.30;;;8.60;99.90;;;;;;4407645;28;657190;-79
2023/12/26 02:15:22;;;;;;;1.57;1.17;;;8.70;99.90;;;;;;4418221;28;656482;-79
2023/12/26 02:18:10;;;;;;;2.13;1.17;;;8.60;99.90;;;;;;4436272;28;657305;-79
2023/12/26 02:20:57;;;;;;;2.20;1.20;;;8.60;99.90;;;;;;4428560;28;656785;-78
2023/12/26 02:23:44;;;;;;;0.83;0.57;;;8.60;99.90;;;;;;4408128;28;656684;-78
2023/12/26 02:26:34;;;;;;;2.50;1.10;;;8.60;99.90;;;;;;4428780;28;657516;-78
2023/12/26 02:29:21;;;;;;;3.27;1.13;;;8.60;99.90;;;;;;4413065;28;657047;-79
2023/12/26 02:32:08;;;;;;;1.70;1.13;;;8.70;99.90;;;;;;4405888;28;656540;-79
2023/12/26 02:34:55;;;;;;;1.73;1.10;;;8.70;99.90;;;;;;4430548;28;657000;-79
2023/12/26 02:37:42;;;;;;;1.97;1.30;;;8.60;99.90;;;;;;4414229;28;656506;-78
2023/12/26 02:40:30;;;;;;;2.30;1.10;;;8.60;99.90;;;;;;4435187;28;657599;-79
2023/12/26 02:43:19;;;;;;;0.83;0.60;;;8.60;99.90;;;;;;4422144;28;656922;-78
2023/12/26 02:46:06;;;;;;;0.98;0.70;;;8.70;99.90;;;;;;4435377;28;656644;-79
2023/12/26 02:48:54;;;;;;;1.97;1.40;;;8.60;99.90;;;;;;4406605;28;656846;-79
2023/12/26 02:51:41;;;;;;;2.23;1.30;;;8.60;99.90;;;;;;4432984;28;656748;-79
2023/12/26 02:54:28;;;;;;;3.37;1.20;;;8.60;99.90;;;;;;4397850;28;656683;-79
2023/12/26 02:57:15;;;;;;;2.67;1.37;;;8.60;99.90;;;;;;4427720;28;656616;-79
2023/12/26 03:00:05;;;;;;;3.80;1.20;;;8.50;99.90;;;;;;4413574;28;657711;-79
2023/12/26 03:02:52;;;;;;;1.00;0.90;;;8.40;99.90;;;;;;4421057;28;656734;-79
2023/12/26 03:05:40;;;;;;;1.60;0.90;;;8.40;99.90;;;;;;4422301;28;657150;-79
2023/12/26 03:08:27;;;;;;;0.60;0.57;;;8.40;99.90;;;;;;4432442;28;656233;-79
2023/12/26 03:11:14;;;;;;;2.13;1.20;;;8.50;99.90;;;;;;4408390;28;656617;-79
2023/12/26 03:14:01;;;;;;;1.80;0.73;;;8.50;99.90;;;;;;4424028;28;656605;-79
2023/12/26 03:16:50;;;;;;;1.43;1.00;;;8.50;99.90;;;;;;4412943;28;656610;-79
2023/12/26 03:19:37;;;;;;;1.20;0.90;;;8.50;99.90;;;;;;4430439;28;657187;-79
2023/12/26 03:22:25;;;;;;;1.70;1.17;;;8.50;99.90;;;;;;4430016;28;656570;-78
2023/12/26 03:25:12;;;;;;;1.97;1.30;;;8.50;99.90;;;;;;4423277;28;656935;-79
2023/12/26 03:27:59;;;;;;;2.93;0.80;;;8.50;99.90;;;;;;4403936;28;657489;-78
2023/12/26 03:30:46;;;;;;;2.73;1.20;;;8.50;99.90;;;;;;4439492;28;656972;-79
2023/12/26 03:33:36;;;;;;;1.93;1.27;;;8.60;99.90;;;;;;4409446;28;656716;-79
2023/12/26 03:36:23;;;;;;;1.53;1.33;;;8.60;99.90;;;;;;4413254;28;656416;-79
2023/12/26 03:39:10;;;;;;;0.80;0.80;;;8.60;99.90;;;;;;4423317;28;656717;-78
2023/12/26 03:41:57;;;;;;;1.37;0.97;;;8.60;99.90;;;;;;4412157;28;656872;-79
2023/12/26 03:44:46;;;;;;;1.33;1.03;;;8.60;99.90;;;;;;4435909;28;657243;-79
2023/12/26 03:47:33;;;;;;;1.52;0.77;;;8.70;99.90;;;;;;4396696;28;656117;-79
2023/12/26 03:50:22;;;;;;;2.90;1.20;;;8.70;99.90;;;;;;4430426;28;657815;-79
2023/12/26 03:53:09;;;;;;;2.27;0.93;;;8.70;99.90;;;;;;4404113;28;656689;-79
2023/12/26 03:55:57;;;;;;;0.77;0.37;;;8.70;99.90;;;;;;4423441;28;656305;-79
2023/12/26 03:58:44;;;;;;;2.00;1.13;;;8.80;99.90;;;;;;4407942;28;656935;-79
2023/12/26 04:01:31;;;;;;;3.30;1.50;;;8.80;99.90;;;;;;4442376;28;657694;-78
2023/12/26 04:04:18;;;;;;;1.83;1.43;;;8.80;99.90;;;;;;4408571;28;657268;-79
2023/12/26 04:07:07;;;;;;;1.50;1.40;;;8.70;99.90;;;;;;4434017;28;656295;-80
2023/12/26 04:09:54;;;;;;;1.07;0.60;;;8.60;99.90;;;;;;4404786;28;656911;-79
2023/12/26 04:12:42;;;;;;;1.23;1.10;;;8.70;99.90;;;;;;4433081;28;656573;-79
2023/12/26 04:15:29;;;;;;;0.97;0.80;;;8.70;99.90;;;;;;4406361;28;657468;-80
2023/12/26 04:18:16;;;;;;;3.00;1.37;;;8.70;99.90;;;;;;4433290;28;656935;-79
2023/12/26 04:21:03;;;;;;;1.97;1.40;;;8.70;99.90;;;;;;4418754;28;657051;-78
2023/12/26 04:23:52;;;;;;;1.83;1.50;;;8.80;99.90;;;;;;4435797;28;657352;-79
2023/12/26 04:26:39;;;;;;;1.83;1.20;;;8.80;99.90;;;;;;4394111;28;657220;-79
2023/12/26 04:29:26;;;;;;;2.40;0.77;;;8.80;99.90;;;;;;4435781;28;656531;-78
2023/12/26 04:32:14;;;;;;;1.00;0.70;;;8.80;99.90;;;;;;4397321;28;656566;-79
2023/12/26 04:35:01;;;;;;;1.33;0.80;;;8.90;99.90;;;;;;4425049;28;656800;-79
2023/12/26 04:37:48;;;;;;;4.80;1.50;;;8.90;99.90;;;;;;4408267;28;656772;-79
2023/12/26 04:40:37;;;;;;;0.57;0.57;;;8.90;99.90;;;;;;4429873;28;657444;-78
2023/12/26 04:43:24;;;;;;;1.97;1.37;;;8.90;99.90;;;;;;4403907;28;657246;-78
2023/12/26 04:46:19;;;;;;;1.80;1.37;;;8.90;99.90;;;;;;4438948;28;656280;-79
2023/12/26 04:49:06;;;;;;;5.03;1.50;;;8.90;99.90;;;;;;4409283;28;656778;-79
2023/12/26 04:51:53;;;;;;;1.73;1.23;;;8.80;99.90;;;;;;4394841;28;657081;-78
2023/12/26 04:54:41;;;;;;;0.50;0.50;;;8.90;99.90;;;;;;4440829;28;657396;-79
2023/12/26 04:57:29;;;;;;;1.40;1.17;;;8.90;99.90;;;;;;4402202;28;657027;-79
2023/12/26 05:00:17;;;;;;;3.27;1.07;;;9.00;99.90;;;;;;4426451;28;656239;-78
2023/12/26 05:03:05;;;;;;;1.40;1.20;;;8.90;99.90;;;;;;4401820;28;656890;-78
2023/12/26 05:05:52;;;;;;;2.30;1.50;;;8.90;99.90;;;;;;4420795;28;657215;-78
2023/12/26 05:08:40;;;;;;;1.10;0.90;;;8.90;99.90;;;;;;4440565;28;656403;-79
2023/12/26 05:11:28;;;;;;;2.90;1.53;;;8.90;99.90;;;;;;4405561;28;656980;-79
2023/12/26 05:14:17;;;;;;;6.73;1.90;;;8.90;99.90;;;;;;4429528;28;657810;-78
2023/12/26 05:17:04;;;;;;;1.73;0.70;;;8.80;99.90;;;;;;4396300;28;657714;-78
2023/12/26 05:19:52;;;;;;;2.63;1.70;;;8.80;99.90;;;;;;4433393;28;656568;-79
2023/12/26 05:22:39;;;;;;;1.80;1.43;;;8.90;99.90;;;;;;4403682;28;656624;-79
2023/12/26 05:25:26;;;;;;;0.97;0.60;;;8.80;99.90;;;;;;4430552;28;656833;-78
2023/12/26 05:28:13;;;;;;;3.60;1.30;;;8.80;99.90;;;;;;4407570;28;656886;-79
2023/12/26 05:31:04;;;;;;;1.83;1.10;;;8.80;99.90;;;;;;4423349;28;657720;-79
2023/12/26 05:33:51;;;;;;;2.87;1.00;;;8.80;99.90;;;;;;4404062;28;656961;-79
2023/12/26 05:36:38;;;;;;;1.97;1.30;;;8.80;99.90;;;;;;4411014;28;656691;-79
2023/12/26 05:39:25;;;;;;;1.97;0.83;;;8.80;99.90;;;;;;4426201;28;656727;-79
2023/12/26 05:42:13;;;;;;;0.87;0.77;;;8.80;99.90;;;;;;4397602;28;656981;-79
2023/12/26 05:45:00;;;;;;;2.27;1.50;;;8.80;99.90;;;;;;4439824;28;656910;-79
2023/12/26 05:47:49;;;;;;;1.60;1.00;;;8.80;99.90;;;;;;4412740;28;657170;-78
2023/12/26 05:50:36;;;;;;;1.60;1.30;;;8.80;99.90;;;;;;4424815;28;656322;-79
2023/12/26 05:53:24;;;;;;;2.00;1.17;;;8.70;99.90;;;;;;4410219;28;656857;-78
2023/12/26 05:56:11;;;;;;;5.73;1.07;;;8.70;99.90;;;;;;4421436;28;657033;-79
2023/12/26 05:58:59;;;;;;;2.07;1.30;;;8.70;99.90;;;;;;4402191;28;656457;-78
2023/12/26 06:01:47;;;;;;;3.33;1.20;;;8.70;99.90;;;;;;4430657;28;656389;-79
2023/12/26 06:04:35;;;;;;;2.30;1.20;;;8.80;99.90;;;;;;4408576;28;657529;-79
2023/12/26 06:07:23;;;;;;;1.27;0.80;;;8.70;99.90;;;;;;4405014;28;656884;-78
2023/12/26 06:10:10;;;;;;;1.90;1.00;;;8.80;99.90;;;;;;4433518;28;656600;-78
2023/12/26 06:12:57;;;;;;;2.13;1.20;;;8.80;99.90;;;;;;4417440;28;656976;-78
2023/12/26 06:15:45;;;;;;;2.30;1.30;;;8.80;99.90;;;;;;4436027;28;656281;-78
2023/12/26 06:18:32;;;;;;;1.27;0.70;;;8.70;99.90;;;;;;4444861;28;656633;-78
2023/12/26 06:21:20;;;;;;;1.63;0.80;;;8.80;99.90;;;;;;4423849;28;657027;-79
2023/12/26 06:24:09;;;;;;;1.50;0.90;;;8.80;99.90;;;;;;4405998;28;656388;-78
2023/12/26 06:26:56;;;;;;;0.97;0.57;;;8.80;99.90;;;;;;4430649;28;656498;-78
2023/12/26 06:29:43;;;;;;;1.20;0.90;;;8.90;99.90;;;;;;4414961;28;656423;-79
2023/12/26 06:32:30;;;;;;;0.93;0.73;;;8.80;99.90;;;;;;4436286;28;656773;-80
2023/12/26 06:35:17;;;;;;;2.67;1.40;;;8.90;99.90;;;;;;4412979;28;656606;-78
2023/12/26 06:38:12;;;;;;;1.60;1.27;;;8.80;99.90;;;;;;4434749;28;657079;-79
2023/12/26 06:40:59;;;;;;;2.73;1.50;;;8.80;99.90;;;;;;4420145;28;656662;-79
2023/12/26 06:43:46;;;;;;;4.00;1.50;;;8.80;99.90;;;;;;4436587;28;656614;-79
2023/12/26 06:46:34;;;;;;;4.77;1.57;;;8.80;99.90;;;;;;4412285;28;656432;-79
2023/12/26 06:49:21;;;;;;;2.13;1.30;;;8.90;99.90;;;;;;4434026;28;656554;-80
2023/12/26 06:52:08;;;;;;;2.13;1.43;;;8.80;99.90;;;;;;4419407;28;656686;-80
2023/12/26 06:54:57;;;;;;;3.00;1.40;;;8.80;99.90;;;;;;4432798;28;657622;-80
2023/12/26 06:57:44;;;;;;;1.57;1.10;;;8.90;99.90;;;;;;4408411;28;658622;-80
2023/12/26 07:00:31;;;;;;;2.20;1.20;;;8.90;99.90;;;;;;4421904;28;656612;-81
2023/12/26 07:03:19;;;;;;;2.67;1.00;;;8.90;99.90;;;;;;4401468;28;656712;-79
2023/12/26 07:06:06;;;;;;;0.37;0.33;;;9.00;99.90;;;;;;4425877;28;657724;-79
2023/12/26 07:08:53;;;;;;;0.90;0.43;;;9.10;99.90;;;;;;4416731;28;657207;-80
2023/12/26 07:11:42;;;;;;;1.50;0.63;;;9.20;99.90;;;;;;4418038;28;656635;-80
2023/12/26 07:14:29;;;;;;;1.47;1.03;;;9.20;99.90;;;;;;4409269;28;656857;-79
2023/12/26 07:17:16;;;;;;;4.67;0.90;;;9.40;99.90;;;;;;4437022;28;656688;-81
2023/12/26 07:20:04;;;;;;;1.77;1.00;;;9.50;99.90;;;;;;4409271;28;656911;-78
2023/12/26 07:22:51;;;;;;;1.60;1.10;;;9.50;99.90;;;;;;4420935;28;656897;-79
2023/12/26 07:25:38;;;;;;;1.60;1.00;;;9.50;99.90;;;;;;4407506;28;656812;-78
2023/12/26 07:28:27;;;;;;;0.80;0.70;;;9.60;99.90;;;;;;4420179;28;656856;-78
2023/12/26 07:31:19;;;;;;;3.30;1.00;;;9.70;99.90;;;;;;4412263;28;656590;-78
2023/12/26 07:34:08;;;;;;;2.10;0.90;;;9.70;99.90;;;;;;4410377;28;657099;-79
2023/12/26 07:36:55;;;;;;;0.50;0.43;;;9.80;99.90;;;;;;4399003;28;657346;-78
2023/12/26 07:39:42;;;;;;;0.83;0.67;;;9.80;99.90;;;;;;4432126;28;656682;-78
2023/12/26 07:42:30;;;;;;;1.73;0.93;;;9.90;99.90;;;;;;4436212;28;656974;-78
2023/12/26 07:45:23;;;;;;;1.20;0.80;;;9.90;99.90;;;;;;4440166;28;656433;-78
2023/12/26 07:48:10;;;;;;;1.67;0.80;;;9.90;99.90;;;;;;4412297;28;656538;-79
2023/12/26 07:50:57;;;;;;;1.67;0.80;;;10.00;99.90;;;;;;4411752;28;656677;-78
2023/12/26 07:53:45;;;;;;;1.27;0.77;;;10.00;99.90;;;;;;4441455;28;657933;-78
2023/12/26 07:56:32;;;;;;;1.53;0.90;;;10.00;99.90;;;;;;4437765;28;657510;-79
2023/12/26 07:59:19;;;;;;;2.00;1.00;;;10.00;99.90;;;;;;4393862;28;659218;-78
2023/12/26 08:02:08;;;;;;;1.97;0.80;;;10.10;99.90;;;;;;4440368;28;658383;-78
2023/12/26 08:04:55;;;;;;;0.87;0.40;;;10.10;99.90;;;;;;4413792;28;658023;-80
2023/12/26 08:07:42;;;;;;;2.63;1.07;;;10.10;99.90;;;;;;4431877;28;658008;-78
2023/12/26 08:10:30;;;;;;;1.20;0.70;;;10.00;99.90;;;;;;4443142;28;658030;-78
2023/12/26 08:13:17;;;;;;;1.13;0.83;;;10.10;99.90;;;;;;4424349;28;658113;-78
2023/12/26 08:16:05;;;;;;;1.40;0.70;;;10.20;99.90;;;;;;4416270;28;657735;-78
2023/12/26 08:18:56;;;;;;;2.43;1.30;;;10.20;99.90;;;;;;4405850;28;657331;-78
2023/12/26 08:21:43;;;;;;;2.22;0.90;;;10.20;99.90;;;;;;4398614;28;657840;-78
2023/12/26 08:24:30;;;;;;;0.60;0.55;;;10.30;99.90;;;;;;4436634;28;658376;-78
2023/12/26 08:27:18;;;;;;;2.30;1.00;;;10.40;99.90;;;;;;4412024;28;657223;-78
2023/12/26 08:30:06;;;;;;;3.13;0.73;;;10.40;99.90;;;;;;4440040;28;657933;-79
2023/12/26 08:32:53;;;;;;;1.13;0.90;;;10.50;99.90;;;;;;4415228;28;657487;-79
2023/12/26 08:35:42;;;;;;;1.53;0.70;;;10.50;99.90;;;;;;4436684;28;658328;-79
2023/12/26 08:38:29;;;;;;;1.67;1.00;;;10.50;99.90;;;;;;4408758;28;658458;-78
2023/12/26 08:41:16;;;;;;;1.73;0.83;;;10.60;99.90;;;;;;4431760;28;657735;-79
2023/12/26 08:44:03;;;;;;;1.53;0.80;;;10.50;99.90;;;;;;4411732;28;658138;-78
2023/12/26 08:46:51;;;;;;;1.83;0.63;;;10.60;99.90;;;;;;4432332;28;657303;-79
2023/12/26 08:49:38;;;;;;;3.93;0.80;;;10.60;99.90;;;;;;4404626;28;657533;-78
2023/12/26 08:52:27;;;;;;;1.67;0.90;;;10.60;99.90;;;;;;4429399;28;658060;-79
2023/12/26 08:55:15;;;;;;;1.47;0.60;;;10.70;99.90;;;;;;4417616;28;657406;-78
2023/12/26 08:58:03;;;;;;;1.30;0.70;;;10.70;99.90;;;;;;4419343;28;657356;-79
2023/12/26 09:00:50;;;;;;;1.43;0.77;;;10.70;99.90;;;;;;4425872;28;659007;-79
2023/12/26 09:03:38;;;;;;;1.53;0.90;;;10.70;99.90;;;;;;4415555;28;657691;-78
2023/12/26 09:06:25;;;;;;;1.90;0.83;;;10.80;99.90;;;;;;4424781;28;658582;-78
2023/12/26 09:09:17;;;;;;;1.57;1.10;;;10.80;99.90;;;;;;4412144;28;657892;-79
2023/12/26 09:12:05;;;;;;;2.40;1.07;;;10.80;99.90;;;;;;4405590;28;657357;-77
2023/12/26 09:14:52;;;;;;;0.60;0.40;;;10.90;99.90;;;;;;4434571;28;657183;-78
2023/12/26 09:17:39;;;;;;;2.70;1.00;;;10.90;99.90;;;;;;4414579;28;658281;-78
2023/12/26 09:20:26;;;;;;;2.10;1.17;;;10.90;99.90;;;;;;4435577;28;657785;-78
2023/12/26 09:23:13;;;;;;;1.47;0.90;;;11.00;99.90;;;;;;4406261;28;657899;-78
2023/12/26 09:26:05;;;;;;;1.30;1.05;;;11.00;99.90;;;;;;4436725;28;658578;-78
2023/12/26 09:28:52;;;;;;;2.73;0.83;;;11.10;99.90;;;;;;4384088;28;657883;-79
2023/12/26 09:31:40;;;;;;;6.33;1.20;;;11.10;99.90;;;;;;4433602;28;657895;-79
2023/12/26 09:34:27;;;;;;;1.60;1.10;;;11.00;99.90;;;;;;4440495;28;657556;-78
2023/12/26 09:37:14;;;;;;;1.60;0.87;;;11.10;99.90;;;;;;4405417;28;658164;-79
2023/12/26 09:40:02;;;;;;;1.67;1.00;;;11.10;99.90;;;;;;4445408;28;657640;-78
2023/12/26 09:42:51;;;;;;;0.87;0.70;;;11.30;99.90;;;;;;4417193;28;658372;-79
2023/12/26 09:45:38;;;;;;;1.47;0.80;;;11.30;99.90;;;;;;4406029;28;658474;-78
2023/12/26 09:48:25;;;;;;;1.50;0.73;;;11.30;99.90;;;;;;4427665;28;658788;-78
2023/12/26 09:51:15;;;;;;;1.63;0.77;;;11.20;99.90;;;;;;4402806;28;657003;-80
2023/12/26 09:54:03;;;;;;;1.70;0.73;;;11.10;99.90;;;;;;4420465;28;658112;-79
2023/12/26 09:56:50;;;;;;;1.23;0.80;;;11.00;99.90;;;;;;4429060;28;658788;-78
2023/12/26 09:59:40;;;;;;;2.10;0.80;;;11.00;99.90;;;;;;4434150;28;657537;-78
2023/12/26 10:02:27;;;;;;;2.07;1.17;;;10.80;99.90;;;;;;4432135;28;657437;-79
2023/12/26 10:05:15;;;;;;;1.07;0.80;;;10.80;99.90;;;;;;4411793;28;657886;-79
2023/12/26 10:08:02;;;;;;;2.83;1.23;;;10.70;99.90;;;;;;4430566;28;657897;-78
2023/12/26 10:10:50;;;;;;;1.50;1.00;;;10.70;99.90;;;;;;4437636;28;657926;-79
2023/12/26 10:13:43;;;;;;;1.00;0.87;;;10.60;99.90;;;;;;4428257;28;658467;-78
2023/12/26 10:16:31;;;;;;;5.07;0.80;;;10.70;99.90;;;;;;4408690;28;658059;-79
2023/12/26 10:19:19;;;;;;;3.50;1.10;;;10.70;99.90;;;;;;4405458;28;658099;-78
2023/12/26 10:22:06;;;;;;;2.13;1.20;;;10.60;99.90;;;;;;4431880;28;657611;-78
2023/12/26 10:25:00;;;;;;;1.70;1.20;;;10.70;99.90;;;;;;4419289;28;656899;-79
2023/12/26 10:27:53;;;;;;;3.57;0.53;;;10.80;99.90;;;;;;4408701;28;657354;-79
2023/12/26 10:30:41;;;;;;;2.50;0.63;;;10.80;99.90;;;;;;4408294;28;658037;-79
2023/12/26 10:33:29;;;;;;;1.60;1.07;;;11.00;99.90;;;;;;4415635;28;657484;-79
2023/12/26 10:36:18;;;;;;;1.90;1.07;;;11.10;99.90;;;;;;4440650;28;657559;-79
2023/12/26 10:39:07;;;;;;;1.73;0.87;;;11.20;99.90;;;;;;4416467;28;658384;-79
2023/12/26 10:41:54;;;;;;;1.50;0.90;;;11.10;99.90;;;;;;4411273;28;658410;-79
2023/12/26 10:44:41;;;;;;;1.30;0.97;;;11.10;99.90;;;;;;4434617;28;657832;-78
2023/12/26 10:47:28;;;;;;;1.10;0.57;;;11.20;99.90;;;;;;4412668;28;658074;-78
2023/12/26 10:50:18;;;;;;;2.60;1.00;;;11.10;99.90;;;;;;4425144;28;658430;-78
2023/12/26 10:53:05;;;;;;;2.40;1.30;;;10.90;99.90;;;;;;4412156;28;658672;-79
2023/12/26 10:55:54;;;;;;;3.87;0.80;;;10.90;99.90;;;;;;4418590;28;657903;-78
2023/12/26 10:58:42;;;;;;;2.50;1.03;;;10.90;99.90;;;;;;4435806;28;658282;-78
2023/12/26 11:01:28;;;;;;;1.47;0.80;;;10.90;99.90;;;;;;4410932;28;657563;-79
2023/12/26 11:04:15;;;;;;;2.10;0.70;;;10.90;99.90;;;;;;4421507;28;658619;-78
2023/12/26 11:07:03;;;;;;;5.40;0.77;;;11.00;99.90;;;;;;4412018;28;658025;-78
2023/12/26 11:09:50;;;;;;;1.80;0.87;;;10.90;99.90;;;;;;4422858;28;657815;-78
2023/12/26 11:12:36;;;;;;;1.87;0.90;;;10.90;99.90;;;;;;4414354;28;657589;-78
2023/12/26 11:15:24;;;;;;;1.77;0.93;;;10.80;99.90;;;;;;4431328;28;657744;-78
2023/12/26 11:18:10;;;;;;;1.30;0.77;;;10.80;99.90;;;;;;4427646;28;658345;-79
2023/12/26 11:20:57;;;;;;;1.10;0.80;;;10.70;99.90;;;;;;4425875;28;657514;-78
2023/12/26 11:23:45;;;;;;;0.83;0.60;;;10.70;99.90;;;;;;4434149;28;658325;-78
2023/12/26 11:26:32;;;;;;;2.53;0.98;;;10.60;99.90;;;;;;4412891;28;657991;-78
2023/12/26 11:29:19;;;;;;;1.13;0.90;;;10.60;99.90;;;;;;4432048;28;658566;-78
2023/12/26 11:32:06;;;;;;;2.33;1.17;;;10.60;99.90;;;;;;4420860;28;657983;-78
2023/12/26 11:34:52;;;;;;;1.90;0.60;;;10.40;99.90;;;;;;4409697;28;657680;-78
2023/12/26 11:37:39;;;;;;;0.57;0.45;;;10.40;99.90;;;;;;4429582;28;657777;-78
2023/12/26 11:40:27;;;;;;;1.73;1.10;;;10.40;99.90;;;;;;4432511;28;657878;-80
2023/12/26 11:43:14;;;;;;;1.97;1.00;;;10.30;99.90;;;;;;4407441;28;658422;-78
2023/12/26 11:46:00;;;;;;;6.30;1.30;;;10.30;99.90;;;;;;4437685;28;657299;-79
2023/12/26 11:48:47;;;;;;;1.07;0.83;;;10.20;99.90;;;;;;4414458;28;657408;-78
2023/12/26 11:51:34;;;;;;;2.17;1.00;;;10.20;99.90;;;;;;4433962;28;657375;-78
2023/12/26 11:54:21;;;;;;;1.80;0.50;;;10.10;99.90;;;;;;4433108;28;657440;-79
2023/12/26 11:57:08;;;;;;;3.80;0.97;;;10.10;99.90;;;;;;4420383;28;657725;-78
2023/12/26 11:59:55;;;;;;;1.77;0.90;;;10.10;99.90;;;;;;4430451;28;658419;-77
2023/12/26 12:02:42;;;;;;;1.80;1.00;;;10.00;99.90;;;;;;4399477;28;657259;-78
2023/12/26 12:05:29;;;;;;;2.40;1.10;;;10.10;99.90;;;;;;4416942;28;657765;-80
2023/12/26 12:08:15;;;;;;;2.07;1.10;;;10.10;99.90;;;;;;4425225;28;657960;-78
2023/12/26 12:11:08;;;;;;;1.50;1.10;;;10.00;99.90;;;;;;4427281;28;657832;-78
2023/12/26 12:13:56;;;;;;;2.60;0.50;;;10.00;99.90;;;;;;4405150;28;659185;-79
2023/12/26 12:16:43;;;;;;;1.87;1.03;;;9.90;99.90;;;;;;4408108;28;657700;-80
2023/12/26 12:19:29;;;;;;;2.33;0.82;;;9.90;99.90;;;;;;4428016;28;656479;-80
2023/12/26 12:22:24;;;;;;;2.33;1.20;;;9.90;99.90;;;;;;4433948;28;656305;-80
2023/12/26 12:25:15;;;;;;;2.33;1.40;;;9.80;99.90;;;;;;4415129;28;656630;-82
2023/12/26 12:28:09;;;;;;;1.67;0.90;;;9.80;99.90;;;;;;4433595;28;656215;-79
2023/12/26 12:31:07;;;;;;;1.23;0.90;;;9.80;99.90;;;;;;4415823;28;656588;-80
2023/12/26 12:34:11;;;;;;;2.03;1.30;;;9.80;99.90;;;;;;4397645;28;656985;-80
2023/12/26 12:36:58;;;;;;;3.03;1.50;;;9.70;99.90;;;;;;4404757;28;657351;-79
2023/12/26 12:39:45;;;;;;;4.60;1.10;;;9.70;99.90;;;;;;4425515;28;657703;-80
2023/12/26 12:42:33;;;;;;;3.67;1.60;;;9.70;99.90;;;;;;4422480;28;656378;-78
2023/12/26 12:45:20;;;;;;;2.93;0.93;;;9.70;99.90;;;;;;4438329;28;657923;-80
2023/12/26 12:48:08;;;;;;;2.60;1.30;;;9.70;99.90;;;;;;4433782;28;657231;-79
2023/12/26 12:50:55;;;;;;;3.13;1.40;;;9.70;99.90;;;;;;4436823;28;657602;-83
2023/12/26 12:53:41;;;;;;;3.10;1.40;;;9.70;99.90;;;;;;4420449;28;656444;-78
2023/12/26 12:56:29;;;;;;;5.77;1.30;;;9.60;99.90;;;;;;4439056;28;656889;-81
2023/12/26 12:59:15;;;;;;;0.93;0.57;;;9.70;99.90;;;;;;4435587;28;657529;-79
2023/12/26 13:02:02;;;;;;;2.63;0.90;;;9.60;99.90;;;;;;4429355;28;658400;-78
2023/12/26 13:04:50;;;;;;;4.20;1.53;;;9.60;99.90;;;;;;4423724;28;656928;-80
2023/12/26 13:07:37;;;;;;;2.63;1.15;;;9.60;99.90;;;;;;4419748;28;656467;-79
2023/12/26 13:10:24;;;;;;;2.53;1.23;;;9.60;99.90;;;;;;4432971;28;656329;-78
2023/12/26 13:13:11;;;;;;;1.17;0.87;;;9.50;99.90;;;;;;4431515;28;657134;-80
2023/12/26 13:15:57;;;;;;;3.97;1.60;;;9.50;99.90;;;;;;4410671;28;657230;-81
2023/12/26 13:18:45;;;;;;;2.87;1.60;;;9.50;99.90;;;;;;4432197;28;656786;-80
2023/12/26 13:21:32;;;;;;;3.70;1.33;;;9.60;99.90;;;;;;4434041;28;656445;-80
2023/12/26 13:24:21;;;;;;;1.90;0.60;;;9.50;99.90;;;;;;4411887;28;657233;-80
2023/12/26 13:27:07;;;;;;;3.70;1.70;;;9.50;99.90;;;;;;4404631;28;659374;-78
2023/12/26 13:29:54;;;;;;;1.80;0.93;;;9.40;99.90;;;;;;4438735;28;656951;-80
2023/12/26 13:32:40;;;;;;;2.23;1.13;;;9.50;99.90;;;;;;4439098;28;656676;-81
2023/12/26 13:35:27;;;;;;;3.13;1.40;;;9.40;99.90;;;;;;4411403;28;656507;-79
2023/12/26 13:38:15;;;;;;;4.50;2.00;;;9.40;99.90;;;;;;4430710;28;656860;-80
2023/12/26 13:41:02;;;;;;;5.43;1.53;;;9.40;99.90;;;;;;4419739;28;657052;-78
2023/12/26 13:43:49;;;;;;;7.87;2.03;;;9.40;99.90;;;;;;4438165;28;657129;-79
2023/12/26 13:46:36;;;;;;;1.80;0.97;;;9.40;99.90;;;;;;4429704;28;657565;-80
2023/12/26 13:49:22;;;;;;;3.47;1.40;;;9.40;99.90;;;;;;4409207;28;657095;-79
2023/12/26 13:52:10;;;;;;;2.63;1.43;;;9.30;99.90;;;;;;4431100;28;656386;-80
2023/12/26 13:54:59;;;;;;;3.37;1.80;;;9.30;99.90;;;;;;4437090;28;657124;-80
2023/12/26 13:57:46;;;;;;;5.13;2.00;;;9.30;99.90;;;;;;4428694;28;656435;-79
2023/12/26 14:00:33;;;;;;;3.30;1.70;;;9.30;99.90;;;;;;4410539;28;656794;-78
2023/12/26 14:03:20;;;;;;;3.83;2.00;;;9.30;99.90;;;;;;4428455;28;658114;-81
2023/12/26 14:06:08;;;;;;;4.33;1.80;;;9.30;99.90;;;;;;4403493;28;657052;-80
2023/12/26 14:08:55;;;;;;;3.87;1.80;;;9.30;99.90;;;;;;4432457;28;657179;-82
2023/12/26 14:11:44;;;;;;;3.47;1.37;;;9.30;99.90;;;;;;4417808;28;656445;-79
2023/12/26 14:14:31;;;;;;;2.97;1.80;;;9.30;99.90;;;;;;4433876;28;656373;-80
2023/12/26 14:17:18;;;;;;;3.43;1.93;;;9.20;99.90;;;;;;4414991;28;656741;-81
2023/12/26 14:20:06;;;;;;;2.73;1.70;;;9.20;99.90;;;;;;4432814;28;657453;-82
2023/12/26 14:22:53;;;;;;;3.50;1.83;;;9.20;99.90;;;;;;4408606;28;656848;-80
2023/12/26 14:25:40;;;;;;;7.00;1.40;;;9.20;99.90;;;;;;4431383;28;657554;-80
2023/12/26 14:28:29;;;;;;;6.47;1.10;;;9.20;99.90;;;;;;4424437;28;656146;-79